Time;durP1;ratioP1;P1;durP2;ratioP2;P2;SDS_P1;SDS_P2;PMS_P1;PMS_P2;Temp;Humidity;BMP_temperature;BMP_pressure;BME280_temperature;BME280_humidity;BME280_pressure;Samples;Min_cycle;Max_cycle;Signal;HPM_P1;HPM_P2
2022/04/12 00:03:11;;;;;;;;;;;7.90;41.90;;;6.26;46.97;101543.41;8337421;28;19925;-88
2022/04/12 00:07:33;;;;;;;;;;;7.90;42.00;;;6.20;47.31;101537.50;8343667;28;19921;-88
2022/04/12 00:11:55;;;;;;;;;;;7.90;42.10;;;6.25;47.21;101558.13;8345366;28;19922;-88
2022/04/12 00:16:17;;;;;;;;;;;7.90;42.10;;;6.25;47.41;101562.47;8346242;28;19999;-87
2022/04/12 00:20:39;;;;;;;;;;;7.90;42.10;;;6.11;47.07;101547.25;8335669;28;20007;-88
2022/04/12 00:25:02;;;;;;;;;;;7.80;42.10;;;6.00;47.37;101539.72;8328463;28;19924;-87
2022/04/12 00:29:23;;;;;;;;;;;7.70;42.10;;;5.88;47.38;101532.16;8341779;28;20014;-87
2022/04/12 00:33:45;;;;;;;;;;;7.70;42.10;;;5.91;46.92;101542.47;8333786;28;20015;-87
2022/04/12 00:38:22;;;;;;;;;;;7.60;42.10;;;5.82;47.34;101529.72;8374179;28;20444;-87
2022/04/12 00:42:45;;;;;;;;;;;7.60;42.10;;;5.85;47.17;101548.63;8321129;28;19995;-88
2022/04/12 00:47:06;;;;;;;;;;;7.60;42.10;;;5.85;47.54;101551.22;8318206;28;20373;-87
2022/04/12 00:51:28;;;;;;;;;;;7.50;42.10;;;5.82;47.29;101545.28;8319860;28;19992;-88
2022/04/12 00:55:51;;;;;;;;;;;7.40;42.10;;;5.68;47.60;101530.88;8339768;28;19917;-87
2022/04/12 01:00:13;;;;;;;;;;;7.40;42.10;;;5.64;47.43;101528.38;8341352;28;20016;-87
2022/04/12 01:04:35;;;;;;;;;;;7.40;42.10;;;5.64;47.13;101541.34;8339769;28;19920;-87
2022/04/12 01:08:57;;;;;;;;;;;7.40;42.10;;;5.54;46.99;101538.09;8300089;28;20354;-88
2022/04/12 01:13:19;;;;;;;;;;;7.30;42.10;;;5.50;47.50;101536.44;8339179;28;19917;-88
2022/04/12 01:17:42;;;;;;;;;;;7.20;42.10;;;5.36;47.18;101510.84;8346055;28;19984;-87
2022/04/12 01:22:05;;;;;;;;;;;7.10;42.10;;;5.43;47.67;101529.72;8340579;28;20007;-88
2022/04/12 01:26:28;;;;;;;;;;;7.20;42.20;;;5.33;47.69;101519.53;8296777;28;19921;-88
2022/04/12 01:30:51;;;;;;;;;;;7.00;42.10;;;5.38;47.29;101537.56;8363826;28;19942;-88
2022/04/12 01:35:13;;;;;;;;;;;7.10;42.30;;;5.20;47.62;101523.25;8352477;28;20030;-88
2022/04/12 01:39:34;;;;;;;;;;;7.10;42.30;;;5.24;47.22;101534.41;8353527;28;19927;-87
2022/04/12 01:43:56;;;;;;;;;;;7.00;42.30;;;5.20;47.33;101531.00;8346274;28;19927;-88
2022/04/12 01:48:18;;;;;;;;;;;7.00;42.30;;;5.28;47.58;101536.91;8339858;28;19916;-88
2022/04/12 01:52:41;;;;;;;;;;;7.00;42.30;;;5.19;47.62;101533.66;8359058;28;20007;-88
2022/04/12 01:57:03;;;;;;;;;;;6.90;42.20;;;5.15;47.42;101525.06;8342634;28;19920;-89
2022/04/12 02:01:25;;;;;;;;;;;6.90;42.30;;;5.19;47.24;101542.28;8319713;28;19981;-89
2022/04/12 02:05:47;;;;;;;;;;;6.90;42.30;;;5.15;47.75;101544.94;8355694;28;19996;-89
2022/04/12 02:10:09;;;;;;;;;;;6.90;42.30;;;4.91;47.76;101510.03;8339354;28;20031;-89
2022/04/12 02:14:30;;;;;;;;;;;6.80;42.30;;;5.01;48.03;101524.50;8329628;28;20011;-89
2022/04/12 02:18:52;;;;;;;;;;;6.70;42.30;;;4.93;47.57;101529.81;8349040;28;20015;-88
2022/04/12 02:23:14;;;;;;;;;;;6.80;42.30;;;4.83;47.73;101516.22;8347494;28;19996;-88
2022/04/12 02:27:37;;;;;;;;;;;6.70;42.30;;;4.75;47.74;101509.44;8358995;28;20562;-89
2022/04/12 02:31:59;;;;;;;;;;;6.70;42.30;;;4.66;47.89;101515.66;8371059;28;20365;-89
2022/04/12 02:36:21;;;;;;;;;;;6.60;42.30;;;4.56;47.55;101511.50;8369946;28;20452;-89
2022/04/12 02:40:43;;;;;;;;;;;6.50;42.20;;;4.59;47.80;101519.22;8340492;28;20019;-89
2022/04/12 02:45:05;;;;;;;;;;;6.50;42.20;;;4.49;47.81;101513.38;8357168;28;19920;-88
2022/04/12 02:49:27;;;;;;;;;;;6.40;42.30;;;4.44;47.82;101516.03;8354651;28;20007;-88
2022/04/12 02:53:49;;;;;;;;;;;6.30;42.30;;;4.39;47.74;101517.84;8364306;28;20034;-89
2022/04/12 02:58:11;;;;;;;;;;;6.20;42.30;;;4.28;47.92;101508.56;8358040;28;20445;-89
2022/04/12 03:02:33;;;;;;;;;;;6.20;42.40;;;4.38;48.05;101530.81;8370785;28;20162;-89
2022/04/12 03:06:54;;;;;;;;;;;6.20;42.50;;;4.30;47.71;101517.16;8377900;28;19931;-89
2022/04/12 03:11:16;;;;;;;;;;;6.00;42.50;;;4.22;47.81;101510.38;8342992;28;20007;-90
2022/04/12 03:15:38;;;;;;;;;;;6.10;42.50;;;4.20;48.00;101511.25;8341742;28;20015;-89
2022/04/12 03:19:59;;;;;;;;;;;6.00;42.50;;;4.27;47.77;101528.41;8359123;28;20023;-90
2022/04/12 03:24:24;;;;;;;;;;;6.10;42.60;;;4.19;48.14;101525.94;8351136;28;20031;-90
2022/04/12 03:28:46;;;;;;;;;;;6.10;42.60;;;4.28;47.73;101530.09;8340400;28;20408;-90
2022/04/12 03:33:08;;;;;;;;;;;6.10;42.60;;;4.28;48.12;101537.84;8370688;28;20019;-90
2022/04/12 03:37:30;;;;;;;;;;;6.10;42.70;;;4.28;47.96;101552.50;8354498;28;20011;-90
2022/04/12 03:41:52;;;;;;;;;;;6.10;42.60;;;4.11;47.71;101532.94;8350059;28;20011;-89
2022/04/12 03:46:14;;;;;;;;;;;6.00;42.60;;;3.97;48.09;101517.66;8302765;28;19929;-88
2022/04/12 03:50:36;;;;;;;;;;;6.00;42.60;;;4.06;47.94;101546.81;8346420;28;19999;-88
2022/04/12 03:54:57;;;;;;;;;;;5.90;42.60;;;4.12;48.17;101557.06;8329467;28;19977;-88
2022/04/12 03:59:20;;;;;;;;;;;6.00;42.60;;;4.14;48.08;101563.06;8360604;28;20019;-88
2022/04/12 04:03:41;;;;;;;;;;;6.00;42.60;;;4.11;47.81;101563.13;8365499;28;20027;-88
2022/04/12 04:08:03;;;;;;;;;;;5.80;42.50;;;3.98;48.17;101552.09;8338464;28;20365;-88
2022/04/12 04:12:25;;;;;;;;;;;5.90;42.50;;;3.89;48.13;101557.38;8349881;28;20019;-88
2022/04/12 04:16:47;;;;;;;;;;;5.90;42.60;;;3.74;48.20;101535.22;8335276;28;20007;-88
2022/04/12 04:21:08;;;;;;;;;;;5.80;42.60;;;3.84;47.98;101559.19;8356272;28;20011;-88
2022/04/12 04:25:30;;;;;;;;;;;5.60;42.50;;;3.84;47.99;101554.03;8335682;28;19920;-88
2022/04/12 04:29:52;;;;;;;;;;;5.70;42.60;;;3.82;48.46;101558.34;8344063;28;19996;-88
2022/04/12 04:34:14;;;;;;;;;;;5.70;42.70;;;3.88;48.08;101566.88;8348437;28;20015;-89
2022/04/12 04:38:35;;;;;;;;;;;5.70;42.70;;;3.82;48.24;101561.78;8362158;28;20027;-89
2022/04/12 04:42:58;;;;;;;;;;;5.70;42.70;;;3.65;48.06;101527.59;8350250;28;20020;-88
2022/04/12 04:47:20;;;;;;;;;;;5.70;42.80;;;3.76;48.50;101547.22;8335289;28;19924;-88
2022/04/12 04:51:42;;;;;;;;;;;5.70;42.80;;;3.86;48.48;101558.31;8320491;28;19917;-88
2022/04/12 04:56:07;;;;;;;;;;;5.80;42.80;;;3.71;48.22;101535.25;8361294;28;20003;-88
2022/04/12 05:00:34;;;;;;;;;;;5.80;42.90;;;3.75;48.30;101540.38;8349708;28;20356;-88
2022/04/12 05:05:04;;;;;;;;;;;5.80;42.90;;;3.90;48.17;101553.94;8361834;28;19928;-92
2022/04/12 05:09:25;;;;;;;;;;;5.80;42.90;;;4.04;48.39;101582.16;8368056;28;20011;-92
2022/04/12 05:13:47;;;;;;;;;;;5.80;43.00;;;4.04;48.70;101574.41;8332712;28;20007;-92
2022/04/12 05:18:09;;;;;;;;;;;5.90;43.00;;;4.10;48.41;101587.22;8349011;28;20010;-93
2022/04/12 05:22:30;;;;;;;;;;;5.90;43.00;;;4.08;48.35;101582.09;8357937;28;19916;-88
2022/04/12 05:26:52;;;;;;;;;;;6.00;43.10;;;4.14;48.61;101591.50;8361934;28;19921;-91
2022/04/12 05:31:14;;;;;;;;;;;5.90;43.00;;;4.03;48.28;101577.88;8338545;28;20010;-92
2022/04/12 05:35:35;;;;;;;;;;;6.00;43.00;;;4.04;48.59;101580.44;8354097;28;20011;-88
2022/04/12 05:39:57;;;;;;;;;;;6.00;43.00;;;4.07;48.50;101587.28;8360086;28;19931;-92
2022/04/12 05:44:19;;;;;;;;;;;6.00;43.00;;;3.96;48.53;101570.19;8337423;28;19921;-93
2022/04/12 05:48:41;;;;;;;;;;;6.20;43.20;;;3.89;48.86;101553.09;8339707;28;20461;-91
2022/04/12 05:53:03;;;;;;;;;;;6.00;43.00;;;4.04;48.63;101584.75;8348966;28;20070;-91
2022/04/12 05:57:24;;;;;;;;;;;6.10;43.10;;;4.16;48.84;101600.09;8352314;28;20019;-91
2022/04/12 06:01:46;;;;;;;;;;;6.10;43.40;;;4.19;48.97;101587.13;8351653;28;20008;-91
2022/04/12 06:06:08;;;;;;;;;;;6.10;43.40;;;4.16;49.14;101576.81;8390098;28;20019;-96
2022/04/12 06:10:30;;;;;;;;;;;6.20;43.50;;;4.27;48.86;101574.94;8370132;28;20003;-95
2022/04/12 06:14:52;;;;;;;;;;;6.30;43.90;;;4.60;49.19;101614.91;8346857;28;19955;-96
2022/04/12 06:19:14;;;;;;;;;;;6.40;43.90;;;4.76;49.10;101615.50;8364158;28;20397;-95
2022/04/12 06:23:36;;;;;;;;;;;6.50;44.10;;;4.88;49.38;101610.13;8370069;28;20428;-91
2022/04/12 06:27:57;;;;;;;;;;;6.60;44.20;;;5.08;49.21;101612.38;8398570;28;20497;-88
2022/04/12 06:32:19;;;;;;;;;;;7.00;44.70;;;5.20;49.44;101606.09;8368404;28;19996;-86
2022/04/12 06:36:41;;;;;;;;;;;7.20;44.50;;;5.47;48.93;101607.31;8382450;28;20010;-94
2022/04/12 06:41:03;;;;;;;;;;;7.40;44.40;;;5.63;49.20;101601.81;8385742;28;20002;-93
2022/04/12 06:45:24;;;;;;;;;;;7.60;44.30;;;5.87;49.22;101608.22;8385553;28;20015;-90
2022/04/12 06:49:48;;;;;;;;;;;7.80;44.60;;;6.08;49.30;101617.31;8367783;28;19983;-90
2022/04/12 06:54:09;;;;;;;;;;;8.00;44.30;;;6.33;49.54;101643.56;8336970;28;20023;-88
2022/04/12 06:58:33;;;;;;;;;;;8.20;44.20;;;6.46;49.25;101632.00;8374440;28;20003;-87
2022/04/12 07:02:55;;;;;;;;;;;8.40;44.10;;;6.64;49.51;101639.38;8368341;28;20004;-85
2022/04/12 07:07:17;;;;;;;;;;;8.50;43.90;;;6.82;49.26;101640.63;8375579;28;20003;-87
2022/04/12 07:11:39;;;;;;;;;;;8.80;44.00;;;6.97;49.26;101639.41;8355445;28;20003;-89
2022/04/12 07:16:02;;;;;;;;;;;8.90;44.00;;;7.07;49.37;101627.03;8365947;28;20397;-85
2022/04/12 07:20:24;;;;;;;;;;;9.10;44.00;;;7.39;49.29;101654.75;8348663;28;20023;-87
2022/04/12 07:24:46;;;;;;;;;;;9.30;43.80;;;7.63;48.96;101652.38;8363846;28;19921;-85
2022/04/12 07:29:08;;;;;;;;;;;9.50;43.80;;;7.83;49.00;101644.88;8381957;28;20011;-87
2022/04/12 07:33:29;;;;;;;;;;;9.70;43.80;;;8.10;49.19;101644.94;8353202;28;20007;-86
2022/04/12 07:37:51;;;;;;;;;;;9.90;43.60;;;8.31;49.18;101646.88;8349206;28;20003;-86
2022/04/12 07:42:14;;;;;;;;;;;10.00;43.40;;;8.66;49.10;101647.56;8364997;28;20012;-90
2022/04/12 07:46:35;;;;;;;;;;;10.40;43.40;;;8.90;49.35;101642.44;8365203;28;19924;-87
2022/04/12 07:50:57;;;;;;;;;;;10.90;43.60;;;9.28;49.36;101651.56;8379966;28;20015;-90
2022/04/12 07:55:19;;;;;;;;;;;11.00;43.60;;;9.50;49.20;101641.22;8380963;28;20015;-89
2022/04/12 07:59:40;;;;;;;;;;;11.40;43.60;;;9.90;49.13;101647.59;8352022;28;20027;-87
2022/04/12 08:04:02;;;;;;;;;;;11.70;43.50;;;10.26;48.78;101652.31;8366902;28;20034;-89
2022/04/12 08:08:24;;;;;;;;;;;12.00;43.30;;;10.54;48.89;101644.28;8378933;28;20019;-88
2022/04/12 08:12:46;;;;;;;;;;;12.40;42.50;;;10.79;48.65;101625.81;8365065;28;19980;-87
2022/04/12 08:17:08;;;;;;;;;;;12.70;43.10;;;11.03;48.80;101630.03;8376505;28;20019;-86
2022/04/12 08:21:38;;;;;;;;;;;12.90;42.30;;;11.30;48.68;101629.75;8365238;28;20011;-86
2022/04/12 08:26:00;;;;;;;;;;;13.20;41.50;;;11.66;48.33;101639.50;8376561;28;20294;-86
2022/04/12 08:30:21;;;;;;;;;;;13.50;42.00;;;11.85;48.06;101618.56;8376846;28;20022;-87
2022/04/12 08:34:44;;;;;;;;;;;13.80;39.50;;;12.21;48.23;101629.13;8347811;28;20492;-85
2022/04/12 08:39:06;;;;;;;;;;;14.00;41.20;;;12.35;48.45;101618.00;8377880;28;20015;-86
2022/04/12 08:43:31;;;;;;;;;;;14.30;41.30;;;12.66;48.13;101638.28;8363878;28;21505;-84
2022/04/12 08:47:53;;;;;;;;;;;14.50;40.90;;;12.90;47.84;101635.38;8377449;28;19927;-80
2022/04/12 08:52:15;;;;;;;;;;;14.70;41.10;;;12.92;47.64;101595.06;8391304;28;19999;-81
2022/04/12 08:56:37;;;;;;;;;;;14.90;41.10;;;13.20;47.49;101614.59;8366848;28;20019;-85
2022/04/12 09:01:00;;;;;;;;;;;15.10;37.90;;;13.41;47.51;101610.06;8362025;28;20292;-86
2022/04/12 09:05:21;;;;;;;;;;;15.30;39.90;;;13.70;47.14;101630.34;8363856;28;20078;-87
2022/04/12 09:09:44;;;;;;;;;;;15.50;40.10;;;13.84;46.95;101613.84;8373804;28;20016;-87
2022/04/12 09:14:05;;;;;;;;;;;15.80;39.20;;;14.05;46.64;101613.59;8367930;28;20015;-85
2022/04/12 09:18:35;;;;;;;;;;;15.90;38.10;;;14.19;46.71;101602.31;8353599;28;19999;-84
2022/04/12 09:23:00;;;;;;;;;;;16.10;38.90;;;14.32;46.57;101612.03;8355355;28;19995;-86
2022/04/12 09:27:26;;;;;;;;;;;16.20;38.00;;;14.48;46.54;101608.56;8369608;28;20385;-86
2022/04/12 09:31:48;;;;;;;;;;;16.30;39.50;;;14.56;46.90;101615.09;8337473;28;20463;-86
2022/04/12 09:36:11;;;;;;;;;;;16.40;37.30;;;14.56;46.69;101580.06;8355868;28;20007;-86
2022/04/12 09:40:33;;;;;;;;;;;16.50;38.30;;;14.70;46.53;101592.41;8360771;28;20416;-88
2022/04/12 09:45:03;;;;;;;;;;;16.50;37.40;;;14.76;46.05;101582.38;8348709;28;19977;-87
2022/04/12 09:49:24;;;;;;;;;;;16.70;37.70;;;14.92;46.01;101602.50;8359878;28;19917;-88
2022/04/12 09:53:47;;;;;;;;;;;16.80;38.20;;;14.98;46.06;101586.34;8350032;28;20552;-87
2022/04/12 09:58:13;;;;;;;;;;;16.90;36.40;;;14.97;46.00;101564.47;8361570;28;19916;-87
2022/04/12 10:02:35;;;;;;;;;;;16.90;39.50;;;15.17;45.47;101570.31;8391859;28;19999;-87
2022/04/12 10:06:57;;;;;;;;;;;17.00;38.60;;;15.36;45.71;101581.38;8364319;28;19951;-88
2022/04/12 10:11:20;;;;;;;;;;;17.20;39.00;;;15.48;45.47;101579.81;8367358;28;20003;-84
2022/04/12 10:15:42;;;;;;;;;;;17.30;38.70;;;15.68;45.65;101581.16;8350534;28;20007;-85
2022/04/12 10:20:05;;;;;;;;;;;17.20;37.50;;;15.78;45.35;101577.06;8338838;28;20011;-92
2022/04/12 10:24:27;;;;;;;;;;;17.50;38.10;;;15.75;45.16;101556.19;8356649;28;20369;-88
2022/04/12 10:29:00;;;;;;;;;;;17.90;35.50;;;15.81;45.13;101536.50;8335916;28;20376;-88
2022/04/12 10:33:27;;;;;;;;;;;17.70;37.60;;;15.97;44.54;101544.28;8355461;28;20007;-86
2022/04/12 10:37:51;;;;;;;;;;;17.70;34.30;;;15.96;44.95;101542.56;8352494;28;19987;-86
2022/04/12 10:42:29;;;;;;;;;;;17.80;36.70;;;16.15;44.65;101561.53;8341234;28;19916;-87
2022/04/12 10:46:51;;;;;;;;;;;17.90;37.50;;;16.10;44.86;101530.19;8352444;28;19921;-87
2022/04/12 10:51:15;;;;;;;;;;;17.90;36.40;;;16.30;44.72;101555.22;8343310;28;19916;-87
2022/04/12 10:55:40;;;;;;;;;;;18.00;36.40;;;16.40;45.03;101541.44;8368425;28;20309;-86
2022/04/12 11:00:11;;;;;;;;;;;17.90;37.70;;;16.61;44.75;101561.13;8364169;28;20003;-83
2022/04/12 11:04:33;;;;;;;;;;;18.20;36.80;;;16.70;44.71;101555.22;8349883;28;20003;-95
2022/04/12 11:09:08;;;;;;;;;;;18.30;37.90;;;16.60;44.45;101517.22;8315969;28;19932;-84
2022/04/12 11:13:31;;;;;;;;;;;18.40;36.10;;;16.80;44.57;101545.75;8373805;28;20363;-87
2022/04/12 11:18:13;;;;;;;;;;;18.50;36.20;;;17.02;44.40;101549.56;8341723;28;20365;-89
2022/04/12 11:22:42;;;;;;;;;;;18.70;37.40;;;17.10;43.97;101536.66;8356377;28;20004;-87
2022/04/12 11:27:14;;;;;;;;;;;18.70;35.80;;;17.02;43.97;101524.00;8346287;28;19924;-86
2022/04/12 11:31:50;;;;;;;;;;;18.90;35.60;;;17.16;44.19;101530.97;8364423;28;20444;-83
2022/04/12 11:36:12;;;;;;;;;;;18.90;36.90;;;17.27;44.10;101532.00;8387669;28;20030;-87
2022/04/12 11:40:34;;;;;;;;;;;18.80;38.20;;;17.36;44.05;101526.94;8365111;28;19995;-88
2022/04/12 11:44:57;;;;;;;;;;;19.00;36.30;;;17.44;43.93;101526.34;8359537;28;20591;-86
2022/04/12 11:49:19;;;;;;;;;;;19.10;35.80;;;17.45;43.80;101509.59;8366385;28;20015;-86
2022/04/12 11:53:48;;;;;;;;;;;19.10;32.00;;;17.55;43.65;101509.75;8337590;28;19924;-86
2022/04/12 11:58:10;;;;;;;;;;;19.20;36.20;;;17.50;43.47;101491.63;8338907;28;19921;-87
2022/04/12 12:02:34;;;;;;;;;;;19.30;34.30;;;17.48;43.33;101481.16;8346252;28;19924;-86
2022/04/12 12:07:03;;;;;;;;;;;19.20;33.70;;;17.54;43.24;101477.22;8336759;28;20291;-86
2022/04/12 12:11:25;;;;;;;;;;;19.30;35.20;;;17.71;43.25;101494.47;8359720;28;19926;-88
2022/04/12 12:15:46;;;;;;;;;;;19.30;31.90;;;17.62;42.69;101476.66;8343588;28;19930;-85
2022/04/12 12:20:08;;;;;;;;;;;19.30;33.80;;;17.74;42.79;101509.25;8356738;28;19925;-87
2022/04/12 12:24:34;;;;;;;;;;;19.30;34.40;;;17.48;42.75;101453.91;8372278;28;20003;-86
2022/04/12 12:28:57;;;;;;;;;;;19.40;32.90;;;17.70;42.73;101482.22;8388343;28;19934;-86
2022/04/12 12:33:23;;;;;;;;;;;19.40;34.40;;;17.80;42.52;101485.09;8352057;28;20378;-87
2022/04/12 12:37:46;;;;;;;;;;;19.30;30.20;;;17.70;42.22;101456.66;8377478;28;20003;-86
2022/04/12 12:42:08;;;;;;;;;;;19.50;32.00;;;17.93;41.79;101483.22;8351122;28;19975;-87
2022/04/12 12:46:33;;;;;;;;;;;19.50;35.40;;;17.91;41.73;101467.47;8390261;28;19934;-87
2022/04/12 12:50:55;;;;;;;;;;;19.50;34.40;;;17.84;41.88;101446.91;8365712;28;20003;-87
2022/04/12 12:55:23;;;;;;;;;;;19.40;34.50;;;18.03;41.85;101465.69;8359041;28;20011;-87
2022/04/12 12:59:47;;;;;;;;;;;19.60;36.00;;;18.04;41.99;101446.25;8362812;28;20407;-88
2022/04/12 13:04:19;;;;;;;;;;;19.60;36.80;;;18.18;41.71;101455.78;8349808;28;20015;-87
2022/04/12 13:08:40;;;;;;;;;;;19.70;34.10;;;18.24;41.55;101465.06;8349118;28;20460;-83
2022/04/12 13:13:02;;;;;;;;;;;19.80;30.80;;;18.19;41.52;101448.69;8391575;28;20448;-84
2022/04/12 13:17:24;;;;;;;;;;;19.80;35.80;;;18.20;41.75;101437.16;8390026;28;19991;-84
2022/04/12 13:21:46;;;;;;;;;;;19.90;35.80;;;18.37;41.04;101452.59;8358924;28;20003;-84
2022/04/12 13:26:08;;;;;;;;;;;19.90;32.80;;;18.39;41.18;101441.88;8343803;28;20007;-85
2022/04/12 13:30:30;;;;;;;;;;;20.00;35.40;;;18.38;41.33;101422.53;8375892;28;20007;-85
2022/04/12 13:34:52;;;;;;;;;;;20.00;35.10;;;18.41;41.15;101416.16;8375731;28;20011;-84
2022/04/12 13:39:14;;;;;;;;;;;20.30;33.60;;;18.60;40.98;101428.81;8361101;28;19999;-84
2022/04/12 13:43:36;;;;;;;;;;;20.10;32.80;;;18.66;41.10;101433.59;8367171;28;20489;-84
2022/04/12 13:47:57;;;;;;;;;;;20.10;34.40;;;18.65;40.94;101427.47;8369895;28;20393;-84
2022/04/12 13:52:21;;;;;;;;;;;20.20;33.80;;;18.80;40.96;101441.34;8355107;28;20399;-85
2022/04/12 13:56:43;;;;;;;;;;;20.20;33.70;;;18.75;40.80;101422.34;8392381;28;20003;-87
2022/04/12 14:01:06;;;;;;;;;;;20.30;36.10;;;18.83;40.82;101406.72;8368804;28;20007;-85
2022/04/12 14:05:28;;;;;;;;;;;20.40;35.20;;;18.62;40.63;101388.03;8369078;28;20448;-85
2022/04/12 14:09:50;;;;;;;;;;;20.40;35.70;;;18.83;40.57;101429.69;8362970;28;19927;-85
2022/04/12 14:14:14;;;;;;;;;;;20.50;32.80;;;18.86;40.54;101425.00;8363884;28;20267;-83
2022/04/12 14:18:35;;;;;;;;;;;20.50;32.40;;;18.94;40.42;101427.88;8389553;28;19924;-83
2022/04/12 14:22:57;;;;;;;;;;;20.40;29.30;;;18.89;40.16;101435.31;8372328;28;19921;-84
2022/04/12 14:27:19;;;;;;;;;;;20.50;33.20;;;18.93;39.95;101436.78;8348340;28;20463;-84
2022/04/12 14:31:42;;;;;;;;;;;20.40;34.40;;;18.90;40.08;101430.88;8351627;28;20335;-85
2022/04/12 14:36:05;;;;;;;;;;;20.40;33.60;;;18.98;40.01;101426.69;8362352;28;20318;-86
2022/04/12 14:40:27;;;;;;;;;;;20.50;35.00;;;18.84;40.26;101387.22;8367520;28;20292;-86
2022/04/12 14:44:49;;;;;;;;;;;20.50;33.20;;;19.05;39.90;101423.53;8349406;28;19924;-85
2022/04/12 14:49:10;;;;;;;;;;;20.50;34.80;;;19.09;40.01;101425.81;8374096;28;19920;-86
2022/04/12 14:53:32;;;;;;;;;;;20.50;35.30;;;19.06;40.16;101419.91;8363657;28;19923;-86
2022/04/12 14:57:54;;;;;;;;;;;20.60;35.50;;;19.09;39.80;101425.81;8375585;28;20007;-85
2022/04/12 15:02:16;;;;;;;;;;;20.40;33.30;;;19.11;39.95;101418.56;8348377;28;20007;-85
2022/04/12 15:06:38;;;;;;;;;;;20.60;34.00;;;19.12;39.81;101411.47;8394299;28;19931;-85
2022/04/12 15:11:00;;;;;;;;;;;20.60;32.70;;;19.19;39.97;101420.59;8380257;28;20425;-85
2022/04/12 15:15:22;;;;;;;;;;;20.70;33.00;;;19.10;39.80;101411.59;8381304;28;20012;-84
2022/04/12 15:19:43;;;;;;;;;;;20.70;33.90;;;19.09;39.98;101409.94;8395033;28;20006;-85
2022/04/12 15:24:05;;;;;;;;;;;20.70;33.70;;;19.15;39.78;101420.03;8395910;28;19999;-83
2022/04/12 15:28:27;;;;;;;;;;;20.70;31.80;;;19.16;39.61;101416.41;8388351;28;19955;-83
2022/04/12 15:32:48;;;;;;;;;;;20.60;34.60;;;19.23;39.54;101419.41;8378669;28;20426;-83
2022/04/12 15:37:10;;;;;;;;;;;20.70;34.20;;;19.22;39.66;101404.47;8389649;28;20448;-83
2022/04/12 15:41:32;;;;;;;;;;;20.70;32.50;;;19.19;39.67;101407.38;8392508;28;19999;-84
2022/04/12 15:45:53;;;;;;;;;;;20.70;30.60;;;19.21;39.41;101408.09;8376424;28;19926;-83
2022/04/12 15:50:16;;;;;;;;;;;20.70;33.50;;;19.11;39.30;101391.25;8378250;28;19921;-84
2022/04/12 15:54:38;;;;;;;;;;;20.50;32.90;;;19.14;39.38;101404.25;8390923;28;20401;-84
2022/04/12 15:58:59;;;;;;;;;;;20.60;32.70;;;18.96;39.30;101383.59;8388731;28;19916;-84
2022/04/12 16:03:21;;;;;;;;;;;20.60;33.40;;;19.06;39.24;101406.66;8373615;28;20006;-84
2022/04/12 16:07:49;;;;;;;;;;;20.50;33.90;;;18.97;39.25;101395.84;8392360;28;19926;-83
2022/04/12 16:12:11;;;;;;;;;;;20.50;31.30;;;19.02;39.13;101414.03;8389586;28;19923;-83
2022/04/12 16:16:33;;;;;;;;;;;20.40;33.80;;;18.96;39.25;101410.06;8390805;28;20308;-83
2022/04/12 16:20:55;;;;;;;;;;;20.40;35.20;;;18.89;39.11;101387.69;8390712;28;20007;-82
2022/04/12 16:25:16;;;;;;;;;;;20.40;34.50;;;18.94;39.11;101396.09;8393032;28;20019;-83
2022/04/12 16:29:38;;;;;;;;;;;20.40;32.90;;;18.91;39.21;101387.56;8385255;28;20002;-84
2022/04/12 16:34:00;;;;;;;;;;;20.40;33.90;;;18.86;39.09;101376.50;8385067;28;20441;-83
2022/04/12 16:38:22;;;;;;;;;;;20.30;34.30;;;18.87;39.11;101386.97;8373958;28;20499;-84
2022/04/12 16:42:44;;;;;;;;;;;20.30;33.90;;;18.78;38.92;101374.47;8378740;28;20083;-83
2022/04/12 16:47:06;;;;;;;;;;;20.30;34.60;;;18.60;39.00;101360.03;8389984;28;19931;-83
2022/04/12 16:51:28;;;;;;;;;;;20.30;34.70;;;18.70;38.96;101382.16;8376040;28;20007;-84
2022/04/12 16:55:50;;;;;;;;;;;20.00;34.20;;;18.50;39.03;101355.47;8382608;28;20372;-83
2022/04/12 17:00:13;;;;;;;;;;;20.40;34.50;;;18.45;38.79;101362.09;8394700;28;20464;-83
2022/04/12 17:04:35;;;;;;;;;;;20.00;34.50;;;18.42;39.00;101357.03;8367858;28;19999;-83
2022/04/12 17:08:57;;;;;;;;;;;19.90;34.70;;;18.46;38.99;101375.16;8377363;28;19927;-82
2022/04/12 17:13:19;;;;;;;;;;;19.80;34.70;;;18.40;39.05;101367.72;8392648;28;20015;-84
2022/04/12 17:17:40;;;;;;;;;;;19.80;34.70;;;18.30;38.87;101364.09;8376291;28;20337;-84
2022/04/12 17:22:02;;;;;;;;;;;19.70;35.20;;;18.04;38.99;101335.25;8392562;28;20011;-84
2022/04/12 17:26:24;;;;;;;;;;;19.70;34.70;;;18.18;39.00;101368.53;8352838;28;19920;-83
2022/04/12 17:30:45;;;;;;;;;;;19.60;35.10;;;17.98;38.96;101340.16;8393517;28;20006;-84
2022/04/12 17:35:07;;;;;;;;;;;19.40;34.80;;;17.94;39.00;101347.47;8392855;28;20003;-83
2022/04/12 17:39:30;;;;;;;;;;;19.40;34.50;;;17.95;39.06;101359.72;8378214;28;20026;-84
2022/04/12 17:43:52;;;;;;;;;;;19.30;35.00;;;17.87;39.04;101359.47;8383020;28;19923;-82
2022/04/12 17:48:14;;;;;;;;;;;19.20;35.20;;;17.77;39.11;101358.44;8370418;28;19924;-85
2022/04/12 17:52:36;;;;;;;;;;;19.10;35.40;;;17.63;39.08;101348.91;8358254;28;19926;-84
2022/04/12 17:56:57;;;;;;;;;;;19.00;35.20;;;17.36;38.93;101325.41;8354506;28;19920;-84
2022/04/12 18:01:19;;;;;;;;;;;18.90;35.40;;;17.41;39.03;101342.59;8385724;28;19994;-84
2022/04/12 18:05:41;;;;;;;;;;;18.80;35.40;;;17.27;38.90;101336.66;8377400;28;19942;-84
2022/04/12 18:10:03;;;;;;;;;;;18.60;35.60;;;17.17;39.01;101350.50;8380423;28;19924;-84
2022/04/12 18:14:24;;;;;;;;;;;18.60;35.40;;;17.09;38.99;101347.59;8373455;28;19921;-84
2022/04/12 18:18:46;;;;;;;;;;;18.40;35.50;;;16.93;38.96;101353.16;8361387;28;19926;-84
2022/04/12 18:23:08;;;;;;;;;;;18.60;35.90;;;16.81;39.17;101348.75;8383367;28;19920;-84
2022/04/12 18:27:30;;;;;;;;;;;18.20;35.70;;;16.75;39.10;101360.56;8347615;28;19925;-84
2022/04/12 18:31:52;;;;;;;;;;;18.10;35.60;;;16.59;39.10;101357.31;8388125;28;19927;-85
2022/04/12 18:36:13;;;;;;;;;;;17.90;35.70;;;16.46;39.09;101367.03;8382726;28;19921;-84
2022/04/12 18:40:35;;;;;;;;;;;17.90;35.80;;;16.19;38.96;101349.53;8373315;28;20407;-84
2022/04/12 18:44:57;;;;;;;;;;;17.70;35.40;;;16.17;38.95;101364.59;8386620;28;20399;-84
2022/04/12 18:49:18;;;;;;;;;;;17.60;35.70;;;15.86;39.19;101343.00;8387723;28;19924;-84
2022/04/12 18:53:40;;;;;;;;;;;17.40;35.70;;;15.96;39.19;101384.50;8361996;28;19920;-85
2022/04/12 18:58:09;;;;;;;;;;;17.20;35.70;;;15.71;39.12;101354.53;8357434;28;20644;-84
2022/04/12 19:02:31;;;;;;;;;;;17.10;35.70;;;15.76;39.07;101384.06;8355509;28;20385;-85
2022/04/12 19:06:54;;;;;;;;;;;17.00;35.90;;;15.56;39.37;101373.97;8351531;28;19951;-85
2022/04/12 19:11:16;;;;;;;;;;;16.90;34.90;;;15.49;39.00;101387.53;8374775;28;19926;-84
2022/04/12 19:15:41;;;;;;;;;;;16.80;35.60;;;15.31;39.20;101367.69;8374959;28;20728;-84
2022/04/12 19:20:03;;;;;;;;;;;16.60;35.50;;;15.25;39.19;101368.06;8374120;28;19920;-85
2022/04/12 19:24:24;;;;;;;;;;;16.70;35.70;;;15.20;39.21;101364.88;8364520;28;19942;-85
2022/04/12 19:28:46;;;;;;;;;;;16.60;35.60;;;15.11;39.33;101365.47;8377092;28;19923;-86
2022/04/12 19:33:08;;;;;;;;;;;16.50;35.30;;;15.03;39.22;101368.59;8354435;28;19927;-85
2022/04/12 19:37:29;;;;;;;;;;;16.40;35.60;;;15.07;39.23;101387.66;8366673;28;19924;-85
2022/04/12 19:41:51;;;;;;;;;;;16.40;35.00;;;15.01;39.35;101389.75;8386708;28;19920;-85
2022/04/12 19:46:17;;;;;;;;;;;16.30;35.80;;;15.00;39.25;101397.72;8386308;28;20249;-85
2022/04/12 19:50:38;;;;;;;;;;;16.30;35.60;;;14.87;39.52;101384.50;8359924;28;20329;-85
2022/04/12 19:55:00;;;;;;;;;;;16.20;35.50;;;14.86;39.10;101393.34;8371486;28;19938;-86
2022/04/12 19:59:22;;;;;;;;;;;16.30;35.80;;;14.88;39.55;101396.72;8370745;28;19942;-85
2022/04/12 20:03:44;;;;;;;;;;;16.20;35.90;;;14.75;39.21;101385.28;8362494;28;19966;-85